createdAt,value
2023-02-03T00:00:54.002Z,1.90
2023-02-03T00:01:55.963Z,1.91
2023-02-03T00:03:00.735Z,1.88
2023-02-03T00:04:02.702Z,1.88
2023-02-03T00:05:08.031Z,1.88
2023-02-03T00:06:12.708Z,1.90
2023-02-03T00:07:17.728Z,1.87
2023-02-03T00:08:20.308Z,1.88
2023-02-03T00:09:24.886Z,1.87
2023-02-03T00:10:27.182Z,1.89
2023-02-03T00:11:33.480Z,1.89
2023-02-03T00:12:35.432Z,1.88
2023-02-03T00:13:40.499Z,1.91
2023-02-03T00:14:42.412Z,1.96
2023-02-03T00:15:46.959Z,1.96
2023-02-03T00:16:49.072Z,1.95
2023-02-03T00:17:53.655Z,1.94
2023-02-03T00:18:55.561Z,1.91
2023-02-03T00:20:00.094Z,1.94
2023-02-03T00:21:02.152Z,1.96
2023-02-03T00:22:09.322Z,1.97
2023-02-03T00:23:12.540Z,1.99
2023-02-03T00:24:18.927Z,1.99
2023-02-03T00:25:21.577Z,2.00
2023-02-03T00:26:28.735Z,2.03
2023-02-03T00:27:30.725Z,2.06
2023-02-03T00:28:35.255Z,2.08
2023-02-03T00:29:37.160Z,2.09
2023-02-03T00:30:41.655Z,2.06
2023-02-03T00:31:43.687Z,2.10
2023-02-03T00:32:48.199Z,2.10
2023-02-03T00:33:54.486Z,2.08
2023-02-03T00:34:59.025Z,2.12
2023-02-03T00:36:05.349Z,2.12
2023-02-03T00:37:14.751Z,2.11
2023-02-03T00:38:16.675Z,2.09
2023-02-03T00:39:21.204Z,2.14
2023-02-03T00:40:25.845Z,2.14
2023-02-03T00:41:33.615Z,2.15
2023-02-03T00:42:35.928Z,2.16
2023-02-03T00:43:40.501Z,2.15
2023-02-03T00:44:42.723Z,2.17
2023-02-03T00:45:47.329Z,2.17
2023-02-03T00:46:49.265Z,2.16
2023-02-03T00:47:53.724Z,2.19
2023-02-03T00:48:55.609Z,2.22
2023-02-03T00:50:00.147Z,2.22
2023-02-03T00:51:02.072Z,2.24
2023-02-03T00:52:06.739Z,2.21
2023-02-03T00:53:11.241Z,2.20
2023-02-03T00:54:16.076Z,2.26
2023-02-03T00:55:18.038Z,2.27
2023-02-03T00:56:22.564Z,2.23
2023-02-03T00:57:24.502Z,2.22
2023-02-03T00:58:29.018Z,2.22
2023-02-03T00:59:30.995Z,2.24
2023-02-03T01:00:35.490Z,2.18
2023-02-03T01:01:40.388Z,2.21
2023-02-03T01:02:42.392Z,2.25
2023-02-03T01:03:46.980Z,2.24
2023-02-03T01:04:49.115Z,2.21
2023-02-03T01:05:53.624Z,2.22
2023-02-03T01:06:57.668Z,2.23
2023-02-03T01:08:03.597Z,2.23
2023-02-03T01:09:08.322Z,2.23
2023-02-03T01:10:14.986Z,2.23
2023-02-03T01:11:19.124Z,2.20
2023-02-03T01:12:23.610Z,2.26
2023-02-03T01:13:25.506Z,2.21
2023-02-03T01:14:30.779Z,2.22
2023-02-03T01:15:32.674Z,2.22
2023-02-03T01:16:38.337Z,2.24
2023-02-03T01:17:40.343Z,2.27
2023-02-03T01:18:45.543Z,2.20
2023-02-03T01:19:47.485Z,2.23
2023-02-03T01:20:52.136Z,2.22
2023-02-03T01:21:54.150Z,2.20
2023-02-03T01:22:58.685Z,2.16
2023-02-03T01:24:01.002Z,2.18
2023-02-03T01:25:08.911Z,2.13
2023-02-03T01:26:13.141Z,2.12
2023-02-03T01:27:17.700Z,2.13
2023-02-03T01:28:19.600Z,2.18
2023-02-03T01:29:24.776Z,2.22
2023-02-03T01:30:26.927Z,2.23
2023-02-03T01:31:35.094Z,2.19
2023-02-03T01:32:37.109Z,2.20
2023-02-03T01:33:46.243Z,2.23
2023-02-03T01:34:48.131Z,2.27
2023-02-03T01:35:52.679Z,2.23
2023-02-03T01:36:54.865Z,2.25
2023-02-03T01:37:59.639Z,2.22
2023-02-03T01:39:02.020Z,2.21
2023-02-03T01:40:10.896Z,2.21
2023-02-03T01:41:15.272Z,2.18
2023-02-03T01:42:19.853Z,2.25
2023-02-03T01:43:32.256Z,2.29
2023-02-03T01:44:47.958Z,2.31
2023-02-03T01:45:50.021Z,2.31
2023-02-03T01:46:55.325Z,2.29
2023-02-03T01:48:02.668Z,2.29
2023-02-03T01:49:08.471Z,2.32
2023-02-03T01:50:18.094Z,2.27
2023-02-03T01:51:20.522Z,2.30
2023-02-03T01:52:25.226Z,2.29
2023-02-03T01:53:27.251Z,2.35
2023-02-03T01:54:35.484Z,2.30
2023-02-03T01:55:44.187Z,2.31
2023-02-03T01:56:54.279Z,2.33
2023-02-03T01:57:59.975Z,2.32
2023-02-03T01:59:04.656Z,2.33
2023-02-03T02:00:08.307Z,2.32
2023-02-03T02:01:12.890Z,2.35
2023-02-03T02:02:15.064Z,2.37
2023-02-03T02:03:22.473Z,2.33
2023-02-03T02:04:40.190Z,2.31
2023-02-03T02:05:51.062Z,2.31
2023-02-03T02:06:54.106Z,2.37
2023-02-03T02:08:01.066Z,2.35
2023-02-03T02:09:03.682Z,2.32
2023-02-03T02:10:09.092Z,2.35
2023-02-03T02:11:13.847Z,2.31
2023-02-03T02:12:18.342Z,2.28
2023-02-03T02:13:21.125Z,2.29
2023-02-03T02:14:25.933Z,2.27
2023-02-03T02:15:40.064Z,2.29
2023-02-03T02:16:50.204Z,2.30
2023-02-03T02:18:15.476Z,2.29
2023-02-03T02:19:47.712Z,2.23
2023-02-03T02:21:00.612Z,2.28
2023-02-03T02:22:17.166Z,2.23
2023-02-03T02:23:41.883Z,2.23
2023-02-03T02:25:21.283Z,2.20
2023-02-03T02:26:49.811Z,2.17
2023-02-03T02:28:25.815Z,2.17
2023-02-03T02:29:57.472Z,2.18
2023-02-03T02:31:24.991Z,2.18
2023-02-03T02:32:46.377Z,2.19
2023-02-03T02:33:58.027Z,2.21
2023-02-03T02:35:06.452Z,2.16
2023-02-03T02:36:18.556Z,2.19
2023-02-03T02:37:34.131Z,2.17
2023-02-03T02:38:49.520Z,2.19
2023-02-03T02:40:00.865Z,2.21
2023-02-03T02:41:09.711Z,2.21
2023-02-03T02:42:22.298Z,2.21
2023-02-03T02:43:35.879Z,2.21
2023-02-03T02:44:46.730Z,2.25
2023-02-03T02:45:50.960Z,2.25
2023-02-03T02:46:58.194Z,2.28
2023-02-03T02:48:10.651Z,2.31
2023-02-03T02:49:19.993Z,2.33
2023-02-03T02:50:26.858Z,2.31
2023-02-03T02:51:34.157Z,2.31
2023-02-03T02:52:41.725Z,2.34
2023-02-03T02:53:52.108Z,2.31
2023-02-03T02:54:57.287Z,2.33
2023-02-03T02:56:06.024Z,2.35
2023-02-03T02:57:11.869Z,2.34
2023-02-03T02:58:19.499Z,2.41
2023-02-03T02:59:21.509Z,2.43
2023-02-03T03:00:26.782Z,2.36
2023-02-03T03:01:28.975Z,2.41
2023-02-03T03:02:37.214Z,2.40
2023-02-03T03:03:44.579Z,2.45
2023-02-03T03:04:52.625Z,2.44
2023-02-03T03:05:59.241Z,2.38
2023-02-03T03:07:07.660Z,2.42
2023-02-03T03:08:13.338Z,2.40
2023-02-03T03:09:20.718Z,2.44
2023-02-03T03:10:27.844Z,2.44
2023-02-03T03:11:36.677Z,2.46
2023-02-03T03:12:44.213Z,2.42
2023-02-03T03:13:52.798Z,2.44
2023-02-03T03:15:00.417Z,2.43
2023-02-03T03:16:07.727Z,2.43
2023-02-03T03:17:14.997Z,2.39
2023-02-03T03:18:24.444Z,2.39
2023-02-03T03:19:33.958Z,2.40
2023-02-03T03:20:42.997Z,2.41
2023-02-03T03:21:49.688Z,2.42
2023-02-03T03:22:59.161Z,2.43
2023-02-03T03:24:09.234Z,2.44
2023-02-03T03:25:15.011Z,2.38
2023-02-03T03:26:27.967Z,2.40
2023-02-03T03:27:34.526Z,2.40
2023-02-03T03:28:48.325Z,2.42
2023-02-03T03:29:57.441Z,2.43
2023-02-03T03:31:02.189Z,2.45
2023-02-03T03:32:05.028Z,2.43
2023-02-03T03:33:11.049Z,2.41
2023-02-03T03:34:14.835Z,2.42
2023-02-03T03:35:22.334Z,2.49
2023-02-03T03:36:29.811Z,2.46
2023-02-03T03:37:38.637Z,2.47
2023-02-03T03:38:45.493Z,2.47
2023-02-03T03:39:54.072Z,2.51
2023-02-03T03:41:02.081Z,2.50
2023-02-03T03:42:14.651Z,2.47
2023-02-03T03:43:20.369Z,2.51
2023-02-03T03:44:31.452Z,2.54
2023-02-03T03:45:41.105Z,2.54
2023-02-03T03:46:52.635Z,2.54
2023-02-03T03:47:57.677Z,2.55
2023-02-03T03:49:05.989Z,2.54
2023-02-03T03:50:12.199Z,2.54
2023-02-03T03:51:22.960Z,2.56
2023-02-03T03:52:30.012Z,2.53
2023-02-03T03:53:39.159Z,2.56
2023-02-03T03:54:42.928Z,2.58
2023-02-03T03:55:52.352Z,2.58
2023-02-03T03:57:00.102Z,2.60
2023-02-03T03:58:08.559Z,2.60
2023-02-03T03:59:14.338Z,2.62
2023-02-03T04:00:22.868Z,2.57
2023-02-03T04:01:26.115Z,2.60
2023-02-03T04:02:32.752Z,2.58
2023-02-03T04:03:40.140Z,2.59
2023-02-03T04:04:46.705Z,2.60
2023-02-03T04:05:48.870Z,2.59
2023-02-03T04:06:56.335Z,2.63
2023-02-03T04:07:59.326Z,2.60
2023-02-03T04:09:05.613Z,2.60
2023-02-03T04:10:14.829Z,2.54
2023-02-03T04:11:39.307Z,2.58
2023-02-03T04:12:41.307Z,2.56
2023-02-03T04:13:45.795Z,2.55
2023-02-03T04:14:47.807Z,2.56
2023-02-03T04:15:52.450Z,2.54
2023-02-03T04:16:54.414Z,2.53
2023-02-03T04:18:01.430Z,2.53
2023-02-03T04:19:03.400Z,2.55
2023-02-03T04:20:08.860Z,2.54
2023-02-03T04:21:10.753Z,2.52
2023-02-03T04:22:17.864Z,2.55
2023-02-03T04:23:19.761Z,2.54
2023-02-03T04:24:24.427Z,2.56
2023-02-03T04:25:26.868Z,2.53
2023-02-03T04:26:31.389Z,2.56
2023-02-03T04:27:34.334Z,2.55
2023-02-03T04:28:38.870Z,2.55
2023-02-03T04:29:40.786Z,2.57
2023-02-03T04:30:45.404Z,2.54
2023-02-03T04:31:47.385Z,2.51
2023-02-03T04:32:52.127Z,2.52
2023-02-03T04:33:54.995Z,2.51
2023-02-03T04:34:59.753Z,2.51
2023-02-03T04:36:01.694Z,2.52
2023-02-03T04:37:06.191Z,2.49
2023-02-03T04:38:10.744Z,2.50
2023-02-03T04:39:15.227Z,2.52
2023-02-03T04:40:18.106Z,2.54
2023-02-03T04:41:22.656Z,2.56
2023-02-03T04:42:25.294Z,2.53
2023-02-03T04:43:29.988Z,2.56
2023-02-03T04:44:31.937Z,2.55
2023-02-03T04:45:36.472Z,2.57
2023-02-03T04:46:38.549Z,2.56
2023-02-03T04:47:43.091Z,2.56
2023-02-03T04:48:45.243Z,2.54
2023-02-03T04:49:49.847Z,2.52
2023-02-03T04:50:51.759Z,2.51
2023-02-03T04:51:56.249Z,2.57
2023-02-03T04:53:00.604Z,2.58
2023-02-03T04:54:07.851Z,2.52
2023-02-03T04:55:09.759Z,2.47
2023-02-03T04:56:16.132Z,2.47
2023-02-03T04:57:18.184Z,2.50
2023-02-03T04:58:22.792Z,2.50
2023-02-03T04:59:24.707Z,2.44
2023-02-03T05:00:30.846Z,2.47
2023-02-03T05:01:32.823Z,2.40
2023-02-03T05:02:37.460Z,2.37
2023-02-03T05:03:39.600Z,2.33
2023-02-03T05:04:44.153Z,2.33
2023-02-03T05:05:46.340Z,2.32
2023-02-03T05:06:51.174Z,2.31
2023-02-03T05:07:53.072Z,2.29
2023-02-03T05:08:57.861Z,2.34
2023-02-03T05:10:02.493Z,2.28
2023-02-03T05:11:07.489Z,2.29
2023-02-03T05:12:11.975Z,2.30
2023-02-03T05:13:13.943Z,2.26
2023-02-03T05:14:18.422Z,2.22
2023-02-03T05:15:20.436Z,2.21
2023-02-03T05:16:25.155Z,2.27
2023-02-03T05:17:27.107Z,2.19
2023-02-03T05:18:31.617Z,2.19
2023-02-03T05:19:33.563Z,2.21
2023-02-03T05:20:38.296Z,2.21
2023-02-03T05:21:42.909Z,2.20
2023-02-03T05:22:44.825Z,2.23
2023-02-03T05:23:49.491Z,2.20
2023-02-03T05:24:51.556Z,2.21
2023-02-03T05:25:58.672Z,2.16
2023-02-03T05:27:00.638Z,2.18
2023-02-03T05:28:05.636Z,2.20
2023-02-03T05:29:08.001Z,2.17
2023-02-03T05:30:13.973Z,2.23
2023-02-03T05:31:18.658Z,2.22
2023-02-03T05:32:20.717Z,2.19
2023-02-03T05:33:25.209Z,2.21
2023-02-03T05:34:27.142Z,2.21
2023-02-03T05:35:31.684Z,2.21
2023-02-03T05:36:33.590Z,2.22
2023-02-03T05:37:38.114Z,2.22
2023-02-03T05:38:42.670Z,2.15
2023-02-03T05:39:44.585Z,2.14
2023-02-03T05:41:03.556Z,2.16
2023-02-03T05:42:10.699Z,2.14
2023-02-03T05:43:13.225Z,2.20
2023-02-03T05:44:17.725Z,2.17
2023-02-03T05:45:19.601Z,2.14
2023-02-03T05:46:24.101Z,2.11
2023-02-03T05:47:25.982Z,2.09
2023-02-03T05:48:30.503Z,2.10
2023-02-03T05:49:32.465Z,2.09
2023-02-03T05:50:38.689Z,2.11
2023-02-03T05:51:41.297Z,2.11
2023-02-03T05:52:45.909Z,2.15
2023-02-03T05:53:47.803Z,2.11
2023-02-03T05:54:52.308Z,2.09
2023-02-03T05:55:54.445Z,2.09
2023-02-03T05:56:58.987Z,2.10
2023-02-03T05:58:04.040Z,2.14
2023-02-03T05:59:09.386Z,2.13
2023-02-03T06:00:13.124Z,2.16
2023-02-03T06:01:17.739Z,2.15
2023-02-03T06:02:19.676Z,2.16
2023-02-03T06:03:24.260Z,2.10
2023-02-03T06:04:26.411Z,2.13
2023-02-03T06:05:31.989Z,2.15
2023-02-03T06:06:34.104Z,2.14
2023-02-03T06:07:38.763Z,2.17
2023-02-03T06:08:40.715Z,2.17
2023-02-03T06:09:45.320Z,2.14
2023-02-03T06:10:47.235Z,2.16
2023-02-03T06:11:51.751Z,2.16
2023-02-03T06:12:53.819Z,2.16
2023-02-03T06:14:02.129Z,2.15
2023-02-03T06:15:04.933Z,2.19
2023-02-03T06:16:09.969Z,2.17
2023-02-03T06:17:11.941Z,2.18
2023-02-03T06:18:16.433Z,2.17
2023-02-03T06:19:18.344Z,2.15
2023-02-03T06:20:23.554Z,2.12
2023-02-03T06:21:25.538Z,2.11
2023-02-03T06:22:30.082Z,2.09
2023-02-03T06:23:32.065Z,2.13
2023-02-03T06:24:36.564Z,2.10
2023-02-03T06:25:38.500Z,2.13
2023-02-03T06:26:43.009Z,2.12
2023-02-03T06:27:44.908Z,2.12
2023-02-03T06:28:49.495Z,2.18
2023-02-03T06:29:54.039Z,2.14
2023-02-03T06:30:58.631Z,2.09
2023-02-03T06:32:00.751Z,2.12
2023-02-03T06:33:05.881Z,2.10
2023-02-03T06:34:07.882Z,2.09
2023-02-03T06:35:12.595Z,2.08
2023-02-03T06:36:17.376Z,2.15
2023-02-03T06:37:19.355Z,2.13
2023-02-03T06:38:23.882Z,2.10
2023-02-03T06:39:25.878Z,2.08
2023-02-03T06:40:30.841Z,2.06
2023-02-03T06:41:32.997Z,2.07
2023-02-03T06:42:37.619Z,2.05
2023-02-03T06:43:42.118Z,2.07
2023-02-03T06:44:44.437Z,2.14
2023-02-03T06:45:51.704Z,2.10
2023-02-03T06:46:53.701Z,2.09
2023-02-03T06:47:58.208Z,2.13
2023-02-03T06:49:00.451Z,2.10
2023-02-03T06:50:05.184Z,2.08
2023-02-03T06:51:09.722Z,2.09
2023-02-03T06:52:14.494Z,2.07
2023-02-03T06:53:16.539Z,2.05
2023-02-03T06:54:21.195Z,2.05
2023-02-03T06:55:23.188Z,2.09
2023-02-03T06:56:27.771Z,2.09
2023-02-03T06:57:29.708Z,2.08
2023-02-03T06:58:34.223Z,2.08
2023-02-03T06:59:36.139Z,2.04
2023-02-03T07:00:40.662Z,2.06
2023-02-03T07:01:45.203Z,2.04
2023-02-03T07:02:56.775Z,2.01
2023-02-03T07:04:01.103Z,2.03
2023-02-03T07:05:03.068Z,1.99
2023-02-03T07:06:08.270Z,1.98
2023-02-03T07:07:10.169Z,1.96
2023-02-03T07:08:14.631Z,1.97
2023-02-03T07:09:16.687Z,1.96
2023-02-03T07:10:21.544Z,1.98
2023-02-03T07:11:23.809Z,2.00
2023-02-03T07:12:28.665Z,2.03
2023-02-03T07:13:30.655Z,2.04
2023-02-03T07:14:36.104Z,1.99
2023-02-03T07:15:41.072Z,1.98
2023-02-03T07:16:48.203Z,2.03
2023-02-03T07:17:54.976Z,2.07
2023-02-03T07:18:57.496Z,2.07
2023-02-03T07:20:02.075Z,2.01
2023-02-03T07:21:07.918Z,1.98
2023-02-03T07:22:13.716Z,1.98
2023-02-03T07:23:15.623Z,1.99
2023-02-03T07:24:20.221Z,1.98
2023-02-03T07:25:22.783Z,1.98
2023-02-03T07:26:27.368Z,1.97
2023-02-03T07:27:29.868Z,1.98
2023-02-03T07:28:34.947Z,2.04
2023-02-03T07:29:36.919Z,2.01
2023-02-03T07:30:41.489Z,2.00
2023-02-03T07:31:48.707Z,1.99
2023-02-03T07:32:51.606Z,1.97
2023-02-03T07:33:56.428Z,1.98
2023-02-03T07:34:58.321Z,1.97
2023-02-03T07:36:03.560Z,2.03
2023-02-03T07:37:08.128Z,2.01
2023-02-03T07:38:10.725Z,2.03
2023-02-03T07:39:15.244Z,2.07
2023-02-03T07:40:20.565Z,2.08
2023-02-03T07:41:22.620Z,2.01
2023-02-03T07:42:27.171Z,1.97
2023-02-03T07:43:29.048Z,2.00
2023-02-03T07:44:33.548Z,2.01
2023-02-03T07:45:38.099Z,2.05
2023-02-03T07:46:44.865Z,2.03
2023-02-03T07:47:52.054Z,2.06
2023-02-03T07:48:53.980Z,2.01
2023-02-03T07:49:58.459Z,2.01
2023-02-03T07:51:03.024Z,2.09
2023-02-03T07:52:05.098Z,2.01
2023-02-03T07:53:10.213Z,2.05
2023-02-03T07:54:15.430Z,2.01
2023-02-03T07:55:17.408Z,2.05
2023-02-03T07:56:21.942Z,2.05
2023-02-03T07:57:23.883Z,2.06
2023-02-03T07:58:28.353Z,2.09
2023-02-03T07:59:32.905Z,2.09
2023-02-03T08:00:35.378Z,2.04
2023-02-03T08:01:40.041Z,2.09
2023-02-03T08:02:42.033Z,2.01
2023-02-03T08:03:49.157Z,2.03
2023-02-03T08:04:53.712Z,2.07
2023-02-03T08:05:55.683Z,2.07
2023-02-03T08:07:00.695Z,2.05
2023-02-03T08:08:02.678Z,2.14
2023-02-03T08:09:07.168Z,2.12
2023-02-03T08:10:10.450Z,2.11
2023-02-03T08:11:15.100Z,2.11
2023-02-03T08:12:17.027Z,2.10
2023-02-03T08:13:21.574Z,2.07
2023-02-03T08:14:24.042Z,2.06
2023-02-03T08:15:28.599Z,2.06
2023-02-03T08:16:30.712Z,2.08
2023-02-03T08:17:36.066Z,2.07
2023-02-03T08:18:41.037Z,2.08
2023-02-03T08:19:45.596Z,2.07
2023-02-03T08:20:50.684Z,2.07
2023-02-03T08:21:52.595Z,2.05
2023-02-03T08:22:57.144Z,2.07
2023-02-03T08:24:01.643Z,2.11
2023-02-03T08:25:06.309Z,2.10
2023-02-03T08:26:10.846Z,2.05
2023-02-03T08:27:13.370Z,2.04
2023-02-03T08:28:17.994Z,2.01
2023-02-03T08:29:20.356Z,2.06
2023-02-03T08:30:25.990Z,2.05
2023-02-03T08:31:30.757Z,2.08
2023-02-03T08:32:33.603Z,2.03
2023-02-03T08:33:38.148Z,2.04
2023-02-03T08:34:40.425Z,2.04
2023-02-03T08:35:52.112Z,2.04
2023-02-03T08:36:56.363Z,2.04
2023-02-03T08:38:00.955Z,2.08
2023-02-03T08:39:02.874Z,2.10
2023-02-03T08:40:09.165Z,2.14
2023-02-03T08:41:15.200Z,2.16
2023-02-03T08:42:19.899Z,2.17
2023-02-03T08:43:24.414Z,2.15
2023-02-03T08:44:29.024Z,2.15
2023-02-03T08:45:33.680Z,2.19
2023-02-03T08:46:43.659Z,2.14
2023-02-03T08:47:48.243Z,2.17
2023-02-03T08:48:53.029Z,2.16
2023-02-03T08:49:57.530Z,2.19
2023-02-03T08:51:04.799Z,2.18
2023-02-03T08:52:10.988Z,2.21
2023-02-03T08:53:15.585Z,2.16
2023-02-03T08:54:20.083Z,2.19
2023-02-03T08:55:22.077Z,2.16
2023-02-03T08:56:27.723Z,2.22
2023-02-03T08:57:35.498Z,2.20
2023-02-03T08:58:38.818Z,2.23
2023-02-03T08:59:45.737Z,2.26
2023-02-03T09:00:49.988Z,2.27
2023-02-03T09:01:55.331Z,2.25
2023-02-03T09:02:59.909Z,2.24
2023-02-03T09:04:07.333Z,2.30
2023-02-03T09:05:12.856Z,2.24
2023-02-03T09:06:22.791Z,2.26
2023-02-03T09:07:28.590Z,2.26
2023-02-03T09:08:33.528Z,2.27
2023-02-03T09:09:38.071Z,2.27
2023-02-03T09:10:42.598Z,2.26
2023-02-03T09:11:47.098Z,2.23
2023-02-03T09:12:51.647Z,2.21
2023-02-03T09:13:57.960Z,2.23
2023-02-03T09:15:02.471Z,2.28
2023-02-03T09:16:07.950Z,2.29
2023-02-03T09:17:13.035Z,2.34
2023-02-03T09:18:17.624Z,2.32
2023-02-03T09:19:19.543Z,2.33
2023-02-03T09:20:25.014Z,2.35
2023-02-03T09:21:36.666Z,2.31
2023-02-03T09:22:47.652Z,2.34
2023-02-03T09:23:52.156Z,2.34
2023-02-03T09:24:56.783Z,2.31
2023-02-03T09:26:04.843Z,2.34
2023-02-03T09:27:09.369Z,2.34
2023-02-03T09:28:13.867Z,2.31
2023-02-03T09:29:16.128Z,2.41
2023-02-03T09:30:21.035Z,2.38
2023-02-03T09:31:25.631Z,2.33
2023-02-03T09:32:30.167Z,2.35
2023-02-03T09:33:34.720Z,2.36
2023-02-03T09:34:41.448Z,2.41
2023-02-03T09:35:46.008Z,2.38
2023-02-03T09:36:53.290Z,2.36
2023-02-03T09:37:55.282Z,2.42
2023-02-03T09:39:00.436Z,2.45
2023-02-03T09:40:04.961Z,2.45
2023-02-03T09:41:23.356Z,2.47
2023-02-03T09:42:58.447Z,2.45
2023-02-03T09:44:09.991Z,2.44
2023-02-03T09:45:20.999Z,2.49
2023-02-03T09:46:29.428Z,2.50
2023-02-03T09:47:36.802Z,2.49
2023-02-03T09:48:46.383Z,2.54
2023-02-03T09:49:53.969Z,2.52
2023-02-03T09:50:58.638Z,2.55
2023-02-03T09:52:14.459Z,2.58
2023-02-03T09:53:30.193Z,2.62
2023-02-03T09:54:43.490Z,2.66
2023-02-03T09:55:49.041Z,2.56
2023-02-03T09:56:55.679Z,2.57
2023-02-03T09:58:06.988Z,2.56
2023-02-03T09:59:12.883Z,2.54
2023-02-03T10:00:19.437Z,2.56
2023-02-03T10:01:27.124Z,2.53
2023-02-03T10:02:51.965Z,2.52
2023-02-03T10:04:04.924Z,2.50
2023-02-03T10:05:16.577Z,2.56
2023-02-03T10:06:30.715Z,2.60
2023-02-03T10:07:50.919Z,2.55
2023-02-03T10:09:21.731Z,2.56
2023-02-03T10:10:38.620Z,2.54
2023-02-03T10:11:59.492Z,2.57
2023-02-03T10:13:14.588Z,2.61
2023-02-03T10:14:35.633Z,2.66
2023-02-03T10:16:00.213Z,2.75
2023-02-03T10:17:21.546Z,2.68
2023-02-03T10:18:31.025Z,2.69
2023-02-03T10:19:41.009Z,2.69
2023-02-03T10:20:50.026Z,2.71
2023-02-03T10:21:55.528Z,2.78
2023-02-03T10:23:07.205Z,2.82
2023-02-03T10:24:17.072Z,2.77
2023-02-03T10:25:27.426Z,2.81
2023-02-03T10:26:32.571Z,2.83
2023-02-03T10:27:39.594Z,2.82
2023-02-03T10:28:51.033Z,2.84
2023-02-03T10:30:00.892Z,2.86
2023-02-03T10:31:14.024Z,2.89
2023-02-03T10:32:18.575Z,2.95
2023-02-03T10:33:23.356Z,2.95
2023-02-03T10:34:25.643Z,2.93
2023-02-03T10:35:38.961Z,2.92
2023-02-03T10:36:56.513Z,2.93
2023-02-03T10:38:03.904Z,2.96
2023-02-03T10:39:19.116Z,2.98
2023-02-03T10:40:29.370Z,2.99
2023-02-03T10:41:32.571Z,3.05
2023-02-03T10:42:49.802Z,3.05
2023-02-03T10:43:57.595Z,3.03
2023-02-03T10:45:00.775Z,3.03
2023-02-03T10:46:05.408Z,3.05
2023-02-03T10:47:24.807Z,3.08
2023-02-03T10:48:27.840Z,3.06
2023-02-03T10:49:32.772Z,3.07
2023-02-03T10:50:38.819Z,3.06
2023-02-03T10:51:49.633Z,3.07
2023-02-03T10:52:54.253Z,3.05
2023-02-03T10:54:00.371Z,3.06
2023-02-03T10:55:12.022Z,3.06
2023-02-03T10:56:18.273Z,3.11
2023-02-03T10:57:22.951Z,3.09
2023-02-03T10:58:31.147Z,3.11
2023-02-03T10:59:38.578Z,3.13
2023-02-03T11:00:40.915Z,3.18
2023-02-03T11:01:48.029Z,3.16
2023-02-03T11:02:59.549Z,3.13
2023-02-03T11:04:06.574Z,3.11
2023-02-03T11:05:11.424Z,3.09
2023-02-03T11:06:17.867Z,3.12
2023-02-03T11:07:27.568Z,3.09
2023-02-03T11:08:31.075Z,3.06
2023-02-03T11:09:40.766Z,3.08
2023-02-03T11:10:43.418Z,3.09
2023-02-03T11:11:47.965Z,3.08
2023-02-03T11:12:49.915Z,3.09
2023-02-03T11:14:15.301Z,3.10
2023-02-03T11:15:17.345Z,3.15
2023-02-03T11:16:24.702Z,3.18
2023-02-03T11:17:33.576Z,3.11
2023-02-03T11:18:42.375Z,3.12
2023-02-03T11:19:49.164Z,3.10
2023-02-03T11:20:51.195Z,3.12
2023-02-03T11:21:57.558Z,3.08
2023-02-03T11:23:00.610Z,3.17
2023-02-03T11:24:09.107Z,3.20
2023-02-03T11:25:27.118Z,3.21
2023-02-03T11:26:34.898Z,3.24
2023-02-03T11:27:39.456Z,3.27
2023-02-03T11:28:44.875Z,3.32
2023-02-03T11:29:53.062Z,3.31
2023-02-03T11:30:57.298Z,3.32
2023-02-03T11:32:05.456Z,3.39
2023-02-03T11:33:17.768Z,3.33
2023-02-03T11:34:27.061Z,3.38
2023-02-03T11:35:31.948Z,3.32
2023-02-03T11:36:38.415Z,3.32
2023-02-03T11:37:45.348Z,3.34
2023-02-03T11:38:47.324Z,3.31
2023-02-03T11:39:52.138Z,3.33
2023-02-03T11:41:02.707Z,3.35
2023-02-03T11:42:25.399Z,3.40
2023-02-03T11:43:29.307Z,3.41
2023-02-03T11:44:33.952Z,3.49
2023-02-03T11:45:44.481Z,3.47
2023-02-03T11:46:50.675Z,3.55
2023-02-03T11:47:58.599Z,3.48
2023-02-03T11:49:11.823Z,3.54
2023-02-03T11:50:26.564Z,3.56
2023-02-03T11:51:37.115Z,3.63
2023-02-03T11:52:58.821Z,3.60
2023-02-03T11:54:18.624Z,3.57
2023-02-03T11:55:37.487Z,3.58
2023-02-03T11:57:05.208Z,3.61
2023-02-03T11:58:40.084Z,3.60
2023-02-03T11:59:56.345Z,3.61
2023-02-03T12:01:15.875Z,3.52
2023-02-03T12:02:51.796Z,3.57
2023-02-03T12:04:22.849Z,3.63
2023-02-03T12:05:50.578Z,3.57
2023-02-03T12:07:25.567Z,3.57
2023-02-03T12:08:45.893Z,3.39
2023-02-03T12:09:59.776Z,3.40
2023-02-03T12:11:14.679Z,3.46
2023-02-03T12:12:35.587Z,3.42
2023-02-03T12:14:02.626Z,3.43
2023-02-03T12:15:23.032Z,3.44
2023-02-03T12:16:55.849Z,3.39
2023-02-03T12:18:14.536Z,3.40
2023-02-03T12:19:29.883Z,3.31
2023-02-03T12:20:47.130Z,3.28
2023-02-03T12:21:59.213Z,3.24
2023-02-03T12:23:14.727Z,3.22
2023-02-03T12:24:32.628Z,3.27
2023-02-03T12:25:47.253Z,3.27
2023-02-03T12:26:59.910Z,3.24
2023-02-03T12:28:32.560Z,3.28
2023-02-03T12:29:43.431Z,3.27
2023-02-03T12:30:49.931Z,3.30
2023-02-03T12:32:02.776Z,3.29
2023-02-03T12:33:15.423Z,3.32
2023-02-03T12:34:26.098Z,3.31
2023-02-03T12:35:33.605Z,3.29
2023-02-03T12:36:43.137Z,3.30
2023-02-03T12:37:52.364Z,3.31
2023-02-03T12:39:00.558Z,3.36
2023-02-03T12:40:09.357Z,3.28
2023-02-03T12:41:18.569Z,3.27
2023-02-03T12:42:29.013Z,3.27
2023-02-03T12:43:40.927Z,3.28
2023-02-03T12:44:50.615Z,3.23
2023-02-03T12:45:57.187Z,3.21
2023-02-03T12:47:07.712Z,3.19
2023-02-03T12:48:17.996Z,3.23
2023-02-03T12:49:34.286Z,3.24
2023-02-03T12:50:45.263Z,3.24
2023-02-03T12:51:55.228Z,3.22
2023-02-03T12:53:06.020Z,3.26
2023-02-03T12:54:21.837Z,3.24
2023-02-03T12:55:34.868Z,3.24
2023-02-03T12:56:43.649Z,3.27
2023-02-03T12:57:54.929Z,3.24
2023-02-03T12:59:07.805Z,3.25
2023-02-03T13:00:22.215Z,3.27
2023-02-03T13:01:31.311Z,3.30
2023-02-03T13:02:37.825Z,3.29
2023-02-03T13:03:48.641Z,3.37
2023-02-03T13:04:57.379Z,3.37
2023-02-03T13:06:11.403Z,3.41
2023-02-03T13:07:24.802Z,3.43
2023-02-03T13:08:36.596Z,3.45
2023-02-03T13:09:43.020Z,3.40
2023-02-03T13:10:52.959Z,3.42
2023-02-03T13:12:04.530Z,3.40
2023-02-03T13:13:10.781Z,3.38
2023-02-03T13:14:25.360Z,3.38
2023-02-03T13:15:30.975Z,3.39
2023-02-03T13:16:39.547Z,3.41
2023-02-03T13:17:50.771Z,3.37
2023-02-03T13:18:58.480Z,3.35
2023-02-03T13:20:07.787Z,3.38
2023-02-03T13:21:14.000Z,3.35
2023-02-03T13:22:19.426Z,3.32
2023-02-03T13:23:25.618Z,3.39
2023-02-03T13:24:30.155Z,3.35
2023-02-03T13:25:42.853Z,3.34
2023-02-03T13:27:11.291Z,3.36
2023-02-03T13:28:26.797Z,3.31
2023-02-03T13:29:47.959Z,3.38
2023-02-03T13:31:17.469Z,3.35
2023-02-03T13:32:37.630Z,3.35
2023-02-03T13:34:00.066Z,3.35
2023-02-03T13:35:24.534Z,3.39
2023-02-03T13:37:01.566Z,3.40
2023-02-03T13:38:34.199Z,3.38
2023-02-03T13:40:01.839Z,3.34
2023-02-03T13:41:14.148Z,3.26
2023-02-03T13:42:24.965Z,3.23
2023-02-03T13:43:38.611Z,3.31
2023-02-03T13:44:46.667Z,3.28
2023-02-03T13:45:53.851Z,3.29
2023-02-03T13:46:59.066Z,3.26
2023-02-03T13:48:12.812Z,3.26
2023-02-03T13:49:23.696Z,3.25
2023-02-03T13:50:31.346Z,3.31
2023-02-03T13:51:43.584Z,3.30
2023-02-03T13:52:57.471Z,3.33
2023-02-03T13:54:05.694Z,3.34
2023-02-03T13:55:11.051Z,3.35
2023-02-03T13:56:23.783Z,3.39
2023-02-03T13:57:34.554Z,3.35
2023-02-03T13:58:41.922Z,3.36
2023-02-03T13:59:46.853Z,3.34
2023-02-03T14:01:04.917Z,3.34
2023-02-03T14:02:43.298Z,3.35
2023-02-03T14:03:49.014Z,3.39
2023-02-03T14:04:54.068Z,3.39
2023-02-03T14:06:01.763Z,3.36
2023-02-03T14:07:27.483Z,3.36
2023-02-03T14:09:01.125Z,3.36
2023-02-03T14:10:17.893Z,3.32
2023-02-03T14:11:41.536Z,3.36
2023-02-03T14:13:02.434Z,3.42
2023-02-03T14:14:34.899Z,3.41
2023-02-03T14:15:42.170Z,3.39
2023-02-03T14:16:47.743Z,3.40
2023-02-03T14:18:00.598Z,3.43
2023-02-03T14:19:05.266Z,3.45
2023-02-03T14:20:45.169Z,3.47
2023-02-03T14:21:54.359Z,3.49
2023-02-03T14:23:00.817Z,3.49
2023-02-03T14:24:10.317Z,3.47
2023-02-03T14:25:12.518Z,3.46
2023-02-03T14:26:21.936Z,3.48
2023-02-03T14:27:30.012Z,3.52
2023-02-03T14:28:41.219Z,3.55
2023-02-03T14:29:45.954Z,3.54
2023-02-03T14:31:07.816Z,3.60
2023-02-03T14:32:12.887Z,3.59
2023-02-03T14:33:14.847Z,3.61
2023-02-03T14:34:20.095Z,3.63
2023-02-03T14:35:25.684Z,3.61
2023-02-03T14:36:38.137Z,3.65
2023-02-03T14:37:43.651Z,3.65
2023-02-03T14:38:45.636Z,3.64
2023-02-03T14:40:17.308Z,3.66
2023-02-03T14:41:27.517Z,3.65
2023-02-03T14:42:47.149Z,3.67
2023-02-03T14:44:01.825Z,3.68
2023-02-03T14:45:16.307Z,3.68
2023-02-03T14:46:36.655Z,3.69
2023-02-03T14:47:58.695Z,3.68
2023-02-03T14:49:22.776Z,3.71
2023-02-03T14:50:41.997Z,3.69
2023-02-03T14:52:03.872Z,3.73
2023-02-03T14:53:21.127Z,3.68
2023-02-03T14:54:40.141Z,3.71
2023-02-03T14:55:55.061Z,3.73
2023-02-03T14:57:18.470Z,3.76
2023-02-03T14:58:32.788Z,3.77
2023-02-03T14:59:41.501Z,3.83
2023-02-03T15:00:46.131Z,3.86
2023-02-03T15:02:18.116Z,3.87
2023-02-03T15:03:25.706Z,3.86